Global Hawk — J8B4829 — position and weather

sailwx.info

Track history (hours):
 
Tides and Currents Weather Stations Pressure Air Temp Water Temp Dewpoint Dewpoint Depression Visibility Wind Speed Wind Dir Waves Ship Positions

Global Hawk

Last reported at 2017-Nov-20 00:20 UTC. Time now 2017-Nov-21 10:22 UTC.
Position N 37°37' E 015°25'.

Length 42 m; draft 1.8 m.

Type: Passenger vessel. MMSI: 375862000.

Date/timePositionNaut miles runAvg speedWind from/ knotsBaromVisibWave heightAir tempDewpointWater temp
2017-Nov-20 00:20N 37°37' E 015°25'  
2017-Nov-15 12:27N 35°59' W 005°16'710.8
2017-Nov-15 11:48N 35°58' W 005°24'  
2017-Nov-13 01:33N 28°58' W 014°26'0 9.7
2017-Nov-13 01:30N 28°58' W 014°26'5 9.6
2017-Nov-13 00:56N 28°54' W 014°30'6 9.8
2017-Nov-13 00:21N 28°50' W 014°35'3 9.9
2017-Nov-13 00:00N 28°48' W 014°38'8 9.7
2017-Nov-12 23:13N 28°42' W 014°44'10 9.6
2017-Nov-12 22:10N 28°35' W 014°52'2 9.7
2017-Nov-12 22:00N 28°34' W 014°53'5 9.9
2017-Nov-12 21:30N 28°31' W 014°57'510.1
2017-Nov-12 20:58N 28°26' W 015°01'510.4
2017-Nov-12 20:30N 28°23' W 015°05'510.6
2017-Nov-12 20:00N 28°19' W 015°09'510.6
2017-Nov-12 19:30N 28°15' W 015°13'510.9
2017-Nov-12 19:00N 28°11' W 015°17'510.6
2017-Nov-12 18:30N 28°08' W 015°22'3 5.4
2017-Nov-12 18:01N 28°08' W 015°25'0 0.2
2017-Nov-12 17:26N 28°09' W 015°25'0 0.0
2017-Nov-12 17:00N 28°09' W 015°25'0 0.0
2017-Nov-12 16:24N 28°09' W 015°25'0 0.0
2017-Nov-12 15:50N 28°09' W 015°25'0 0.0
2017-Nov-12 15:28N 28°09' W 015°25'0 0.0
2017-Nov-12 14:49N 28°09' W 015°25'0 0.0
2017-Nov-12 14:28N 28°09' W 015°25'0 0.0
2017-Nov-12 13:58N 28°09' W 015°25'0 0.0
2017-Nov-12 13:26N 28°09' W 015°25'0 0.0
2017-Nov-12 13:00N 28°09' W 015°25'0 0.0
2017-Nov-12 12:17N 28°09' W 015°25'0 0.0
2017-Nov-12 11:51N 28°09' W 015°25'0 0.0
2017-Nov-12 11:21N 28°09' W 015°25'0 0.0
2017-Nov-12 11:00N 28°09' W 015°25'0 0.0
2017-Nov-12 10:25N 28°09' W 015°25'0 0.0
2017-Nov-12 09:59N 28°09' W 015°25'0 0.0
2017-Nov-12 09:24N 28°09' W 015°25'0 0.0
2017-Nov-12 08:54N 28°09' W 015°25'0 0.0
2017-Nov-12 08:24N 28°09' W 015°25'0 0.0
2017-Nov-12 07:52N 28°09' W 015°25'0 0.0
2017-Nov-12 07:23N 28°09' W 015°25'0 0.0
2017-Nov-12 06:53N 28°09' W 015°25'0 0.0
2017-Nov-12 06:29N 28°09' W 015°25'0 0.0
2017-Nov-12 05:47N 28°09' W 015°25'0 0.0
2017-Nov-12 05:26N 28°09' W 015°25'0 0.0
2017-Nov-12 04:52N 28°09' W 015°25'0 0.0
2017-Nov-12 04:30N 28°09' W 015°25'0 0.0
2017-Nov-12 04:00N 28°09' W 015°25'0 0.0
2017-Nov-12 03:22N 28°09' W 015°25'0 0.0
2017-Nov-12 02:52N 28°09' W 015°25'0 0.0
2017-Nov-12 02:19N 28°09' W 015°25'0 0.0
2017-Nov-12 01:49N 28°09' W 015°25'0 0.0
2017-Nov-12 01:27N 28°09' W 015°25'0 0.0
2017-Nov-12 00:58N 28°09' W 015°25'0 0.0
2017-Nov-12 00:28N 28°09' W 015°25'0 0.0
2017-Nov-11 23:58N 28°09' W 015°25'0 0.0
2017-Nov-11 23:25N 28°09' W 015°25'0 0.0
2017-Nov-11 22:47N 28°09' W 015°25'0 0.0
2017-Nov-11 22:21N 28°09' W 015°25'0 0.0
2017-Nov-11 21:51N 28°09' W 015°25'0 0.0
2017-Nov-11 21:21N 28°09' W 015°25'0 0.0
2017-Nov-11 20:54N 28°09' W 015°25'0 0.0
2017-Nov-11 20:30N 28°09' W 015°25'0 0.0
2017-Nov-11 19:55N 28°09' W 015°25'0 0.0
2017-Nov-11 19:24N 28°09' W 015°25'0 0.0
2017-Nov-11 18:58N 28°09' W 015°25'0 0.0
2017-Nov-11 18:29N 28°09' W 015°25'0 0.0
2017-Nov-11 17:54N 28°09' W 015°25'0 0.0
2017-Nov-11 17:28N 28°09' W 015°25'0 0.0
2017-Nov-11 16:59N 28°09' W 015°25'0 0.0
2017-Nov-11 16:18N 28°09' W 015°25'0 0.0
2017-Nov-11 15:53N 28°09' W 015°25'0 0.0
2017-Nov-11 15:24N 28°09' W 015°25'0 0.0
2017-Nov-11 15:00N 28°09' W 015°25'0 0.0
2017-Nov-11 14:26N 28°09' W 015°25'0 0.0
2017-Nov-11 13:54N 28°09' W 015°25'0 0.0
2017-Nov-11 13:26N 28°09' W 015°25'0 0.0
2017-Nov-11 12:51N 28°09' W 015°25'0 0.0
2017-Nov-11 12:27N 28°09' W 015°25'0 0.0
2017-Nov-11 11:59N 28°09' W 015°25'0 0.0
2017-Nov-11 11:29N 28°09' W 015°25'0 0.0
2017-Nov-11 10:59N 28°09' W 015°25'0 0.0
2017-Nov-11 10:23N 28°09' W 015°25'0 0.0
2017-Nov-11 09:52N 28°09' W 015°25'0 0.0
2017-Nov-11 09:22N 28°09' W 015°25'0 0.0
2017-Nov-11 08:52N 28°09' W 015°25'0 0.0
2017-Nov-11 08:21N 28°09' W 015°25'0 0.0
2017-Nov-11 07:58N 28°09' W 015°25'0 0.0
2017-Nov-11 07:28N 28°09' W 015°25'0 0.0
2017-Nov-11 06:55N 28°09' W 015°25'0 0.0
2017-Nov-11 06:25N 28°09' W 015°25'0 0.0
2017-Nov-11 05:56N 28°09' W 015°25'0 0.0
2017-Nov-11 05:25N 28°09' W 015°25'0 0.0
2017-Nov-11 04:52N 28°09' W 015°25'0 0.0
2017-Nov-11 04:28N 28°09' W 015°25'0 0.0
2017-Nov-11 03:57N 28°09' W 015°25'0 0.0
2017-Nov-11 03:24N 28°09' W 015°25'0 0.0
2017-Nov-11 03:00N 28°09' W 015°25'0 0.0
2017-Nov-11 02:14N 28°09' W 015°25'0 0.0
2017-Nov-11 02:00N 28°09' W 015°25'0 0.0
2017-Nov-11 01:23N 28°09' W 015°25'0 0.0
2017-Nov-11 01:00N 28°09' W 015°25'0 0.0
2017-Nov-11 00:27N 28°09' W 015°25'0 0.0
2017-Nov-10 23:58N 28°09' W 015°25'0 0.0
2017-Nov-10 23:23N 28°09' W 015°25'0 0.0
2017-Nov-10 22:59N 28°09' W 015°25'0 0.0
2017-Nov-10 22:24N 28°09' W 015°25'0 0.0
2017-Nov-10 22:00N 28°09' W 015°25'0 0.0
2017-Nov-10 21:27N 28°09' W 015°25'0 0.0
2017-Nov-10 20:58N 28°09' W 015°25'0 0.0
2017-Nov-10 20:23N 28°09' W 015°25'0 0.0
2017-Nov-10 19:52N 28°09' W 015°25'0 0.0
2017-Nov-10 19:25N 28°09' W 015°25'0 0.0
2017-Nov-10 18:51N 28°09' W 015°25'0 0.0
2017-Nov-10 18:29N 28°09' W 015°25'0 0.0
2017-Nov-10 17:57N 28°09' W 015°25'0 0.0
2017-Nov-10 17:30N 28°09' W 015°25'0 0.0
2017-Nov-10 16:59N 28°09' W 015°25'0 0.0
2017-Nov-10 16:09N 28°09' W 015°25'0 0.0
2017-Nov-10 15:54N 28°09' W 015°25'0 0.0
2017-Nov-10 15:29N 28°09' W 015°25'0 0.0
2017-Nov-10 14:50N 28°09' W 015°25'0 0.0
2017-Nov-10 14:25N 28°09' W 015°25'0 0.0
2017-Nov-10 13:57N 28°09' W 015°25'0 0.0
2017-Nov-10 13:20N 28°09' W 015°25'0 0.0
2017-Nov-10 12:50N 28°09' W 015°25'0 0.0
2017-Nov-10 12:24N 28°09' W 015°25'0 0.0
2017-Nov-10 11:49N 28°09' W 015°25'0 0.0
2017-Nov-10 11:29N 28°09' W 015°25'0 0.0
2017-Nov-10 10:59N 28°09' W 015°25'0 0.0
2017-Nov-10 10:17N 28°09' W 015°25'0 0.0
2017-Nov-10 09:59N 28°09' W 015°25'0 0.0
2017-Nov-10 09:29N 28°09' W 015°25'0 0.0
2017-Nov-10 08:59N 28°09' W 015°25'0 0.0
2017-Nov-10 08:28N 28°09' W 015°25'0 0.0
2017-Nov-10 07:51N 28°09' W 015°25'0 0.0
2017-Nov-10 07:28N 28°09' W 015°25'0 0.0
2017-Nov-10 06:49N 28°09' W 015°25'0 0.0
2017-Nov-10 06:28N 28°09' W 015°25'0 0.0
2017-Nov-10 05:58N 28°09' W 015°25'0 0.0
2017-Nov-10 05:29N 28°09' W 015°25'0 0.0
2017-Nov-10 04:58N 28°09' W 015°25'0 0.0
2017-Nov-10 04:28N 28°09' W 015°25'0 0.0
2017-Nov-10 03:58N 28°09' W 015°25'0 0.0
2017-Nov-10 03:25N 28°09' W 015°25'0 0.0
2017-Nov-10 02:54N 28°09' W 015°25'0 0.0
2017-Nov-10 02:28N 28°09' W 015°25'0 0.0
2017-Nov-10 01:53N 28°09' W 015°25'0 0.0
2017-Nov-10 01:28N 28°09' W 015°25'0 0.0
2017-Nov-10 01:00N 28°09' W 015°25'  
Track history (hours):
 
Tides and Currents Weather Stations Pressure Air Temp Water Temp Dewpoint Dewpoint Depression Visibility Wind Speed Wind Dir Waves Ship Positions

Global Hawk

Last reported at 2017-Nov-20 00:20 UTC. Time now 2017-Nov-21 10:22 UTC.
Position N 37°37' E 015°25'.

Length 42 m; draft 1.8 m.

Type: Passenger vessel. MMSI: 375862000.

Date/timePositionNaut miles runAvg speedWind from/ knotsBaromVisibWave heightAir tempDewpointWater temp
2017-Nov-20 00:20N 37°37' E 015°25'  
2017-Nov-15 12:27N 35°59' W 005°16'710.8
2017-Nov-15 11:48N 35°58' W 005°24'  
2017-Nov-13 01:33N 28°58' W 014°26'0 9.7
2017-Nov-13 01:30N 28°58' W 014°26'5 9.6
2017-Nov-13 00:56N 28°54' W 014°30'6 9.8
2017-Nov-13 00:21N 28°50' W 014°35'3 9.9
2017-Nov-13 00:00N 28°48' W 014°38'8 9.7
2017-Nov-12 23:13N 28°42' W 014°44'10 9.6
2017-Nov-12 22:10N 28°35' W 014°52'2 9.7
2017-Nov-12 22:00N 28°34' W 014°53'5 9.9
2017-Nov-12 21:30N 28°31' W 014°57'510.1
2017-Nov-12 20:58N 28°26' W 015°01'510.4
2017-Nov-12 20:30N 28°23' W 015°05'510.6
2017-Nov-12 20:00N 28°19' W 015°09'510.6
2017-Nov-12 19:30N 28°15' W 015°13'510.9
2017-Nov-12 19:00N 28°11' W 015°17'510.6
2017-Nov-12 18:30N 28°08' W 015°22'3 5.4
2017-Nov-12 18:01N 28°08' W 015°25'0 0.2
2017-Nov-12 17:26N 28°09' W 015°25'0 0.0
2017-Nov-12 17:00N 28°09' W 015°25'0 0.0
2017-Nov-12 16:24N 28°09' W 015°25'0 0.0
2017-Nov-12 15:50N 28°09' W 015°25'0 0.0
2017-Nov-12 15:28N 28°09' W 015°25'0 0.0
2017-Nov-12 14:49N 28°09' W 015°25'0 0.0
2017-Nov-12 14:28N 28°09' W 015°25'0 0.0
2017-Nov-12 13:58N 28°09' W 015°25'0 0.0
2017-Nov-12 13:26N 28°09' W 015°25'0 0.0
2017-Nov-12 13:00N 28°09' W 015°25'0 0.0
2017-Nov-12 12:17N 28°09' W 015°25'0 0.0
2017-Nov-12 11:51N 28°09' W 015°25'0 0.0
2017-Nov-12 11:21N 28°09' W 015°25'0 0.0
2017-Nov-12 11:00N 28°09' W 015°25'0 0.0
2017-Nov-12 10:25N 28°09' W 015°25'0 0.0
2017-Nov-12 09:59N 28°09' W 015°25'0 0.0
2017-Nov-12 09:24N 28°09' W 015°25'0 0.0
2017-Nov-12 08:54N 28°09' W 015°25'0 0.0
2017-Nov-12 08:24N 28°09' W 015°25'0 0.0
2017-Nov-12 07:52N 28°09' W 015°25'0 0.0
2017-Nov-12 07:23N 28°09' W 015°25'0 0.0
2017-Nov-12 06:53N 28°09' W 015°25'0 0.0
2017-Nov-12 06:29N 28°09' W 015°25'0 0.0
2017-Nov-12 05:47N 28°09' W 015°25'0 0.0
2017-Nov-12 05:26N 28°09' W 015°25'0 0.0
2017-Nov-12 04:52N 28°09' W 015°25'0 0.0
2017-Nov-12 04:30N 28°09' W 015°25'0 0.0
2017-Nov-12 04:00N 28°09' W 015°25'0 0.0
2017-Nov-12 03:22N 28°09' W 015°25'0 0.0
2017-Nov-12 02:52N 28°09' W 015°25'0 0.0
2017-Nov-12 02:19N 28°09' W 015°25'0 0.0
2017-Nov-12 01:49N 28°09' W 015°25'0 0.0
2017-Nov-12 01:27N 28°09' W 015°25'0 0.0
2017-Nov-12 00:58N 28°09' W 015°25'0 0.0
2017-Nov-12 00:28N 28°09' W 015°25'0 0.0
2017-Nov-11 23:58N 28°09' W 015°25'0 0.0
2017-Nov-11 23:25N 28°09' W 015°25'0 0.0
2017-Nov-11 22:47N 28°09' W 015°25'0 0.0
2017-Nov-11 22:21N 28°09' W 015°25'0 0.0
2017-Nov-11 21:51N 28°09' W 015°25'0 0.0
2017-Nov-11 21:21N 28°09' W 015°25'0 0.0
2017-Nov-11 20:54N 28°09' W 015°25'0 0.0
2017-Nov-11 20:30N 28°09' W 015°25'0 0.0
2017-Nov-11 19:55N 28°09' W 015°25'0 0.0
2017-Nov-11 19:24N 28°09' W 015°25'0 0.0
2017-Nov-11 18:58N 28°09' W 015°25'0 0.0
2017-Nov-11 18:29N 28°09' W 015°25'0 0.0
2017-Nov-11 17:54N 28°09' W 015°25'0 0.0
2017-Nov-11 17:28N 28°09' W 015°25'0 0.0
2017-Nov-11 16:59N 28°09' W 015°25'0 0.0
2017-Nov-11 16:18N 28°09' W 015°25'0 0.0
2017-Nov-11 15:53N 28°09' W 015°25'0 0.0
2017-Nov-11 15:24N 28°09' W 015°25'0 0.0
2017-Nov-11 15:00N 28°09' W 015°25'0 0.0
2017-Nov-11 14:26N 28°09' W 015°25'0 0.0
2017-Nov-11 13:54N 28°09' W 015°25'0 0.0
2017-Nov-11 13:26N 28°09' W 015°25'0 0.0
2017-Nov-11 12:51N 28°09' W 015°25'0 0.0
2017-Nov-11 12:27N 28°09' W 015°25'0 0.0
2017-Nov-11 11:59N 28°09' W 015°25'0 0.0
2017-Nov-11 11:29N 28°09' W 015°25'0 0.0
2017-Nov-11 10:59N 28°09' W 015°25'0 0.0
2017-Nov-11 10:23N 28°09' W 015°25'0 0.0
2017-Nov-11 09:52N 28°09' W 015°25'0 0.0
2017-Nov-11 09:22N 28°09' W 015°25'0 0.0
2017-Nov-11 08:52N 28°09' W 015°25'0 0.0
2017-Nov-11 08:21N 28°09' W 015°25'0 0.0
2017-Nov-11 07:58N 28°09' W 015°25'0 0.0
2017-Nov-11 07:28N 28°09' W 015°25'0 0.0
2017-Nov-11 06:55N 28°09' W 015°25'0 0.0
2017-Nov-11 06:25N 28°09' W 015°25'0 0.0
2017-Nov-11 05:56N 28°09' W 015°25'0 0.0
2017-Nov-11 05:25N 28°09' W 015°25'0 0.0
2017-Nov-11 04:52N 28°09' W 015°25'0 0.0
2017-Nov-11 04:28N 28°09' W 015°25'0 0.0
2017-Nov-11 03:57N 28°09' W 015°25'0 0.0
2017-Nov-11 03:24N 28°09' W 015°25'0 0.0
2017-Nov-11 03:00N 28°09' W 015°25'0 0.0
2017-Nov-11 02:14N 28°09' W 015°25'0 0.0
2017-Nov-11 02:00N 28°09' W 015°25'0 0.0
2017-Nov-11 01:23N 28°09' W 015°25'0 0.0
2017-Nov-11 01:00N 28°09' W 015°25'0 0.0
2017-Nov-11 00:27N 28°09' W 015°25'0 0.0
2017-Nov-10 23:58N 28°09' W 015°25'0 0.0
2017-Nov-10 23:23N 28°09' W 015°25'0 0.0
2017-Nov-10 22:59N 28°09' W 015°25'0 0.0
2017-Nov-10 22:24N 28°09' W 015°25'0 0.0
2017-Nov-10 22:00N 28°09' W 015°25'0 0.0
2017-Nov-10 21:27N 28°09' W 015°25'0 0.0
2017-Nov-10 20:58N 28°09' W 015°25'0 0.0
2017-Nov-10 20:23N 28°09' W 015°25'0 0.0
2017-Nov-10 19:52N 28°09' W 015°25'0 0.0
2017-Nov-10 19:25N 28°09' W 015°25'0 0.0
2017-Nov-10 18:51N 28°09' W 015°25'0 0.0
2017-Nov-10 18:29N 28°09' W 015°25'0 0.0
2017-Nov-10 17:57N 28°09' W 015°25'0 0.0
2017-Nov-10 17:30N 28°09' W 015°25'0 0.0
2017-Nov-10 16:59N 28°09' W 015°25'0 0.0
2017-Nov-10 16:09N 28°09' W 015°25'0 0.0
2017-Nov-10 15:54N 28°09' W 015°25'0 0.0
2017-Nov-10 15:29N 28°09' W 015°25'0 0.0
2017-Nov-10 14:50N 28°09' W 015°25'0 0.0
2017-Nov-10 14:25N 28°09' W 015°25'0 0.0
2017-Nov-10 13:57N 28°09' W 015°25'0 0.0
2017-Nov-10 13:20N 28°09' W 015°25'0 0.0
2017-Nov-10 12:50N 28°09' W 015°25'0 0.0
2017-Nov-10 12:24N 28°09' W 015°25'0 0.0
2017-Nov-10 11:49N 28°09' W 015°25'0 0.0
2017-Nov-10 11:29N 28°09' W 015°25'0 0.0
2017-Nov-10 10:59N 28°09' W 015°25'0 0.0
2017-Nov-10 10:17N 28°09' W 015°25'0 0.0
2017-Nov-10 09:59N 28°09' W 015°25'0 0.0
2017-Nov-10 09:29N 28°09' W 015°25'0 0.0
2017-Nov-10 08:59N 28°09' W 015°25'0 0.0
2017-Nov-10 08:28N 28°09' W 015°25'0 0.0
2017-Nov-10 07:51N 28°09' W 015°25'0 0.0
2017-Nov-10 07:28N 28°09' W 015°25'0 0.0
2017-Nov-10 06:49N 28°09' W 015°25'0 0.0
2017-Nov-10 06:28N 28°09' W 015°25'0 0.0
2017-Nov-10 05:58N 28°09' W 015°25'0 0.0
2017-Nov-10 05:29N 28°09' W 015°25'0 0.0
2017-Nov-10 04:58N 28°09' W 015°25'0 0.0
2017-Nov-10 04:28N 28°09' W 015°25'0 0.0
2017-Nov-10 03:58N 28°09' W 015°25'0 0.0
2017-Nov-10 03:25N 28°09' W 015°25'0 0.0
2017-Nov-10 02:54N 28°09' W 015°25'0 0.0
2017-Nov-10 02:28N 28°09' W 015°25'0 0.0
2017-Nov-10 01:53N 28°09' W 015°25'0 0.0
2017-Nov-10 01:28N 28°09' W 015°25'0 0.0
2017-Nov-10 01:00N 28°09' W 015°25'  

Dump ship's entire track history